sensor_id;sensor_type;location;lat;lon;timestamp;P1;durP1;ratioP1;P2;durP2;ratioP2
53040;SDS011;39326;42.650;23.248;2024-02-16T00:00:12;5.73;;;5.03;;
53040;SDS011;39326;42.650;23.248;2024-02-16T00:02:38;5.77;;;5.17;;
53040;SDS011;39326;42.650;23.248;2024-02-16T00:05:05;6.73;;;5.30;;
53040;SDS011;39326;42.650;23.248;2024-02-16T00:07:33;6.03;;;5.27;;
53040;SDS011;39326;42.650;23.248;2024-02-16T00:09:59;7.70;;;5.67;;
53040;SDS011;39326;42.650;23.248;2024-02-16T00:12:25;7.57;;;5.30;;
53040;SDS011;39326;42.650;23.248;2024-02-16T00:14:51;6.50;;;5.17;;
53040;SDS011;39326;42.650;23.248;2024-02-16T00:17:16;6.37;;;5.60;;
53040;SDS011;39326;42.650;23.248;2024-02-16T00:19:42;5.93;;;5.33;;
53040;SDS011;39326;42.650;23.248;2024-02-16T00:22:08;6.00;;;5.30;;
53040;SDS011;39326;42.650;23.248;2024-02-16T00:24:34;5.93;;;5.33;;
53040;SDS011;39326;42.650;23.248;2024-02-16T00:27:01;6.13;;;5.53;;
53040;SDS011;39326;42.650;23.248;2024-02-16T00:29:30;8.93;;;7.00;;
53040;SDS011;39326;42.650;23.248;2024-02-16T00:31:59;8.30;;;7.50;;
53040;SDS011;39326;42.650;23.248;2024-02-16T00:34:25;9.00;;;8.10;;
53040;SDS011;39326;42.650;23.248;2024-02-16T00:36:51;9.10;;;8.00;;
53040;SDS011;39326;42.650;23.248;2024-02-16T00:39:17;9.40;;;8.50;;
53040;SDS011;39326;42.650;23.248;2024-02-16T00:41:43;11.90;;;9.10;;
53040;SDS011;39326;42.650;23.248;2024-02-16T00:44:08;9.00;;;8.17;;
53040;SDS011;39326;42.650;23.248;2024-02-16T00:46:35;10.53;;;9.07;;
53040;SDS011;39326;42.650;23.248;2024-02-16T00:49:01;10.17;;;9.07;;
53040;SDS011;39326;42.650;23.248;2024-02-16T00:51:27;10.90;;;9.73;;
53040;SDS011;39326;42.650;23.248;2024-02-16T00:53:52;9.53;;;8.53;;
53040;SDS011;39326;42.650;23.248;2024-02-16T00:56:18;9.53;;;8.33;;
53040;SDS011;39326;42.650;23.248;2024-02-16T00:58:43;10.43;;;9.43;;
53040;SDS011;39326;42.650;23.248;2024-02-16T01:01:09;11.73;;;10.47;;
53040;SDS011;39326;42.650;23.248;2024-02-16T01:03:37;11.50;;;9.60;;
53040;SDS011;39326;42.650;23.248;2024-02-16T01:06:04;11.00;;;9.03;;
53040;SDS011;39326;42.650;23.248;2024-02-16T01:08:31;14.03;;;10.30;;
53040;SDS011;39326;42.650;23.248;2024-02-16T01:10:57;12.07;;;10.73;;
53040;SDS011;39326;42.650;23.248;2024-02-16T01:13:22;11.03;;;9.47;;
53040;SDS011;39326;42.650;23.248;2024-02-16T01:15:48;12.70;;;11.37;;
53040;SDS011;39326;42.650;23.248;2024-02-16T01:18:14;12.23;;;10.53;;
53040;SDS011;39326;42.650;23.248;2024-02-16T01:20:40;12.70;;;10.60;;
53040;SDS011;39326;42.650;23.248;2024-02-16T01:23:06;13.47;;;10.97;;
53040;SDS011;39326;42.650;23.248;2024-02-16T01:25:32;9.90;;;8.90;;
53040;SDS011;39326;42.650;23.248;2024-02-16T01:27:57;11.37;;;9.33;;
53040;SDS011;39326;42.650;23.248;2024-02-16T01:30:24;8.90;;;8.10;;
53040;SDS011;39326;42.650;23.248;2024-02-16T01:32:50;9.73;;;8.10;;
53040;SDS011;39326;42.650;23.248;2024-02-16T01:35:16;8.73;;;7.87;;
53040;SDS011;39326;42.650;23.248;2024-02-16T01:37:41;9.53;;;8.40;;
53040;SDS011;39326;42.650;23.248;2024-02-16T01:40:10;9.10;;;7.83;;
53040;SDS011;39326;42.650;23.248;2024-02-16T01:42:51;9.37;;;7.60;;
53040;SDS011;39326;42.650;23.248;2024-02-16T01:45:20;9.67;;;8.77;;
53040;SDS011;39326;42.650;23.248;2024-02-16T01:47:47;8.37;;;7.57;;
53040;SDS011;39326;42.650;23.248;2024-02-16T01:50:17;8.07;;;7.07;;
53040;SDS011;39326;42.650;23.248;2024-02-16T01:52:44;9.00;;;7.30;;
53040;SDS011;39326;42.650;23.248;2024-02-16T01:55:11;7.77;;;6.97;;
53040;SDS011;39326;42.650;23.248;2024-02-16T01:57:38;9.23;;;7.03;;
53040;SDS011;39326;42.650;23.248;2024-02-16T02:00:05;7.20;;;6.50;;
53040;SDS011;39326;42.650;23.248;2024-02-16T02:02:33;7.13;;;6.03;;
53040;SDS011;39326;42.650;23.248;2024-02-16T02:04:59;7.33;;;6.63;;
53040;SDS011;39326;42.650;23.248;2024-02-16T02:07:25;7.40;;;6.10;;
53040;SDS011;39326;42.650;23.248;2024-02-16T02:09:52;7.23;;;6.47;;
53040;SDS011;39326;42.650;23.248;2024-02-16T02:12:18;6.63;;;5.80;;
53040;SDS011;39326;42.650;23.248;2024-02-16T02:14:43;7.27;;;5.93;;
53040;SDS011;39326;42.650;23.248;2024-02-16T02:17:09;8.43;;;6.57;;
53040;SDS011;39326;42.650;23.248;2024-02-16T02:19:35;8.57;;;6.40;;
53040;SDS011;39326;42.650;23.248;2024-02-16T02:22:00;6.87;;;6.23;;
53040;SDS011;39326;42.650;23.248;2024-02-16T02:24:26;7.40;;;6.70;;
53040;SDS011;39326;42.650;23.248;2024-02-16T02:26:52;6.80;;;5.20;;
53040;SDS011;39326;42.650;23.248;2024-02-16T02:29:17;6.90;;;6.30;;
53040;SDS011;39326;42.650;23.248;2024-02-16T02:31:43;6.70;;;6.00;;
53040;SDS011;39326;42.650;23.248;2024-02-16T02:34:09;7.40;;;6.80;;
53040;SDS011;39326;42.650;23.248;2024-02-16T02:36:35;7.33;;;6.37;;
53040;SDS011;39326;42.650;23.248;2024-02-16T02:39:01;7.07;;;6.40;;
53040;SDS011;39326;42.650;23.248;2024-02-16T02:41:26;6.60;;;6.00;;
53040;SDS011;39326;42.650;23.248;2024-02-16T02:43:52;7.17;;;6.47;;
53040;SDS011;39326;42.650;23.248;2024-02-16T02:46:18;7.77;;;6.20;;
53040;SDS011;39326;42.650;23.248;2024-02-16T02:48:44;8.17;;;6.70;;
53040;SDS011;39326;42.650;23.248;2024-02-16T02:51:10;7.17;;;6.47;;
53040;SDS011;39326;42.650;23.248;2024-02-16T02:53:35;7.90;;;6.37;;
53040;SDS011;39326;42.650;23.248;2024-02-16T02:56:01;7.70;;;6.80;;
53040;SDS011;39326;42.650;23.248;2024-02-16T02:58:27;6.53;;;5.93;;
53040;SDS011;39326;42.650;23.248;2024-02-16T03:00:53;5.90;;;5.30;;
53040;SDS011;39326;42.650;23.248;2024-02-16T03:03:19;6.80;;;5.57;;
53040;SDS011;39326;42.650;23.248;2024-02-16T03:05:45;7.40;;;5.73;;
53040;SDS011;39326;42.650;23.248;2024-02-16T03:08:11;7.30;;;6.60;;
53040;SDS011;39326;42.650;23.248;2024-02-16T03:10:36;6.83;;;6.00;;
53040;SDS011;39326;42.650;23.248;2024-02-16T03:13:02;7.03;;;6.33;;
53040;SDS011;39326;42.650;23.248;2024-02-16T03:15:28;7.23;;;6.63;;
53040;SDS011;39326;42.650;23.248;2024-02-16T03:17:56;6.93;;;5.50;;
53040;SDS011;39326;42.650;23.248;2024-02-16T03:20:22;6.13;;;5.50;;
53040;SDS011;39326;42.650;23.248;2024-02-16T03:22:48;5.40;;;4.90;;
53040;SDS011;39326;42.650;23.248;2024-02-16T03:25:14;5.43;;;4.90;;
53040;SDS011;39326;42.650;23.248;2024-02-16T03:27:39;5.80;;;5.20;;
53040;SDS011;39326;42.650;23.248;2024-02-16T03:30:06;5.87;;;5.17;;
53040;SDS011;39326;42.650;23.248;2024-02-16T03:32:33;5.97;;;5.17;;
53040;SDS011;39326;42.650;23.248;2024-02-16T03:34:59;7.03;;;4.97;;
53040;SDS011;39326;42.650;23.248;2024-02-16T03:37:25;6.13;;;5.10;;
53040;SDS011;39326;42.650;23.248;2024-02-16T03:39:51;6.37;;;5.50;;
53040;SDS011;39326;42.650;23.248;2024-02-16T03:42:18;6.20;;;5.60;;
53040;SDS011;39326;42.650;23.248;2024-02-16T03:44:44;6.33;;;5.73;;
53040;SDS011;39326;42.650;23.248;2024-02-16T03:47:10;6.40;;;5.70;;
53040;SDS011;39326;42.650;23.248;2024-02-16T03:49:37;6.10;;;5.47;;
53040;SDS011;39326;42.650;23.248;2024-02-16T03:52:03;6.90;;;6.20;;
53040;SDS011;39326;42.650;23.248;2024-02-16T03:54:28;7.00;;;5.53;;
53040;SDS011;39326;42.650;23.248;2024-02-16T03:56:54;6.33;;;5.57;;
53040;SDS011;39326;42.650;23.248;2024-02-16T03:59:20;7.43;;;5.30;;
53040;SDS011;39326;42.650;23.248;2024-02-16T04:01:46;6.10;;;4.63;;
53040;SDS011;39326;42.650;23.248;2024-02-16T04:04:12;6.03;;;4.40;;
53040;SDS011;39326;42.650;23.248;2024-02-16T04:06:38;4.37;;;3.97;;
53040;SDS011;39326;42.650;23.248;2024-02-16T04:09:04;4.37;;;3.87;;
53040;SDS011;39326;42.650;23.248;2024-02-16T04:11:31;3.87;;;3.47;;
53040;SDS011;39326;42.650;23.248;2024-02-16T04:13:57;3.60;;;3.30;;
53040;SDS011;39326;42.650;23.248;2024-02-16T04:16:23;3.90;;;3.53;;
53040;SDS011;39326;42.650;23.248;2024-02-16T04:18:50;4.20;;;3.73;;
53040;SDS011;39326;42.650;23.248;2024-02-16T04:21:16;3.50;;;3.20;;
53040;SDS011;39326;42.650;23.248;2024-02-16T04:23:42;4.43;;;4.00;;
53040;SDS011;39326;42.650;23.248;2024-02-16T04:26:07;6.23;;;4.97;;
53040;SDS011;39326;42.650;23.248;2024-02-16T04:28:34;5.33;;;4.77;;
53040;SDS011;39326;42.650;23.248;2024-02-16T04:31:00;7.70;;;5.63;;
53040;SDS011;39326;42.650;23.248;2024-02-16T04:33:25;5.87;;;5.37;;
53040;SDS011;39326;42.650;23.248;2024-02-16T04:35:51;6.53;;;5.40;;
53040;SDS011;39326;42.650;23.248;2024-02-16T04:38:17;6.20;;;5.60;;
53040;SDS011;39326;42.650;23.248;2024-02-16T04:40:42;6.40;;;5.80;;
53040;SDS011;39326;42.650;23.248;2024-02-16T04:43:08;6.33;;;5.17;;
53040;SDS011;39326;42.650;23.248;2024-02-16T04:45:33;6.20;;;5.27;;
53040;SDS011;39326;42.650;23.248;2024-02-16T04:48:05;5.30;;;4.47;;
53040;SDS011;39326;42.650;23.248;2024-02-16T04:50:32;5.40;;;4.90;;
53040;SDS011;39326;42.650;23.248;2024-02-16T04:52:58;4.60;;;4.20;;
53040;SDS011;39326;42.650;23.248;2024-02-16T04:55:23;4.80;;;4.40;;
53040;SDS011;39326;42.650;23.248;2024-02-16T04:57:49;4.40;;;4.00;;
53040;SDS011;39326;42.650;23.248;2024-02-16T05:00:15;5.37;;;4.87;;
53040;SDS011;39326;42.650;23.248;2024-02-16T05:02:40;4.57;;;3.87;;
53040;SDS011;39326;42.650;23.248;2024-02-16T05:05:06;4.10;;;3.70;;
53040;SDS011;39326;42.650;23.248;2024-02-16T05:07:32;4.47;;;3.80;;
53040;SDS011;39326;42.650;23.248;2024-02-16T05:09:58;3.60;;;3.30;;
53040;SDS011;39326;42.650;23.248;2024-02-16T05:12:24;4.33;;;3.93;;
53040;SDS011;39326;42.650;23.248;2024-02-16T05:14:51;4.53;;;4.13;;
53040;SDS011;39326;42.650;23.248;2024-02-16T05:17:17;6.33;;;4.67;;
53040;SDS011;39326;42.650;23.248;2024-02-16T05:19:44;5.03;;;4.57;;
53040;SDS011;39326;42.650;23.248;2024-02-16T05:22:10;4.77;;;4.37;;
53040;SDS011;39326;42.650;23.248;2024-02-16T05:24:36;5.13;;;4.67;;
53040;SDS011;39326;42.650;23.248;2024-02-16T05:27:01;5.40;;;4.90;;
53040;SDS011;39326;42.650;23.248;2024-02-16T05:29:27;5.57;;;5.07;;
53040;SDS011;39326;42.650;23.248;2024-02-16T05:31:53;6.33;;;5.40;;
53040;SDS011;39326;42.650;23.248;2024-02-16T05:34:18;7.53;;;5.53;;
53040;SDS011;39326;42.650;23.248;2024-02-16T05:36:44;5.07;;;4.50;;
53040;SDS011;39326;42.650;23.248;2024-02-16T05:39:10;5.20;;;4.70;;
53040;SDS011;39326;42.650;23.248;2024-02-16T05:41:48;5.50;;;4.87;;
53040;SDS011;39326;42.650;23.248;2024-02-16T05:44:14;4.93;;;4.53;;
53040;SDS011;39326;42.650;23.248;2024-02-16T05:46:39;5.27;;;4.77;;
53040;SDS011;39326;42.650;23.248;2024-02-16T05:49:05;5.93;;;5.40;;
53040;SDS011;39326;42.650;23.248;2024-02-16T05:51:37;6.00;;;5.50;;
53040;SDS011;39326;42.650;23.248;2024-02-16T05:54:06;7.23;;;6.30;;
53040;SDS011;39326;42.650;23.248;2024-02-16T05:56:33;6.90;;;5.40;;
53040;SDS011;39326;42.650;23.248;2024-02-16T05:59:01;6.70;;;5.70;;
53040;SDS011;39326;42.650;23.248;2024-02-16T06:01:27;7.03;;;6.33;;
53040;SDS011;39326;42.650;23.248;2024-02-16T06:03:53;6.47;;;5.63;;
53040;SDS011;39326;42.650;23.248;2024-02-16T06:06:19;6.63;;;5.37;;
53040;SDS011;39326;42.650;23.248;2024-02-16T06:08:45;6.27;;;5.63;;
53040;SDS011;39326;42.650;23.248;2024-02-16T06:11:10;7.43;;;5.47;;
53040;SDS011;39326;42.650;23.248;2024-02-16T06:13:36;6.00;;;5.40;;
53040;SDS011;39326;42.650;23.248;2024-02-16T06:16:04;5.70;;;5.20;;
53040;SDS011;39326;42.650;23.248;2024-02-16T06:18:33;16.80;;;15.27;;
53040;SDS011;39326;42.650;23.248;2024-02-16T06:20:59;19.43;;;17.77;;
53040;SDS011;39326;42.650;23.248;2024-02-16T06:23:25;14.67;;;13.30;;
53040;SDS011;39326;42.650;23.248;2024-02-16T06:25:50;6.20;;;5.43;;
53040;SDS011;39326;42.650;23.248;2024-02-16T06:28:16;6.43;;;5.73;;
53040;SDS011;39326;42.650;23.248;2024-02-16T06:30:42;8.00;;;5.80;;
53040;SDS011;39326;42.650;23.248;2024-02-16T06:33:07;5.23;;;4.73;;
53040;SDS011;39326;42.650;23.248;2024-02-16T06:35:33;5.83;;;5.17;;
53040;SDS011;39326;42.650;23.248;2024-02-16T06:37:58;5.83;;;5.00;;
53040;SDS011;39326;42.650;23.248;2024-02-16T06:40:24;5.23;;;4.73;;
53040;SDS011;39326;42.650;23.248;2024-02-16T06:42:51;5.27;;;4.77;;
53040;SDS011;39326;42.650;23.248;2024-02-16T06:45:17;5.30;;;4.77;;
53040;SDS011;39326;42.650;23.248;2024-02-16T06:47:42;6.27;;;5.30;;
53040;SDS011;39326;42.650;23.248;2024-02-16T06:50:08;5.77;;;5.27;;
53040;SDS011;39326;42.650;23.248;2024-02-16T06:52:34;6.63;;;4.30;;
53040;SDS011;39326;42.650;23.248;2024-02-16T06:54:59;5.03;;;4.63;;
53040;SDS011;39326;42.650;23.248;2024-02-16T06:57:25;5.27;;;4.83;;
53040;SDS011;39326;42.650;23.248;2024-02-16T06:59:50;5.23;;;4.63;;
53040;SDS011;39326;42.650;23.248;2024-02-16T07:02:18;4.67;;;4.27;;
53040;SDS011;39326;42.650;23.248;2024-02-16T07:04:43;4.60;;;4.20;;
53040;SDS011;39326;42.650;23.248;2024-02-16T07:07:10;9.47;;;8.30;;
53040;SDS011;39326;42.650;23.248;2024-02-16T07:09:36;8.93;;;8.10;;
53040;SDS011;39326;42.650;23.248;2024-02-16T07:12:04;4.83;;;4.37;;
53040;SDS011;39326;42.650;23.248;2024-02-16T07:14:31;4.33;;;3.93;;
53040;SDS011;39326;42.650;23.248;2024-02-16T07:16:57;5.63;;;4.17;;
53040;SDS011;39326;42.650;23.248;2024-02-16T07:19:23;4.43;;;4.00;;
53040;SDS011;39326;42.650;23.248;2024-02-16T07:21:48;4.57;;;3.97;;
53040;SDS011;39326;42.650;23.248;2024-02-16T07:24:15;5.67;;;4.13;;
53040;SDS011;39326;42.650;23.248;2024-02-16T07:26:40;6.40;;;4.80;;
53040;SDS011;39326;42.650;23.248;2024-02-16T07:29:07;8.63;;;6.43;;
53040;SDS011;39326;42.650;23.248;2024-02-16T07:31:33;5.63;;;4.93;;
53040;SDS011;39326;42.650;23.248;2024-02-16T07:33:59;5.53;;;5.03;;
53040;SDS011;39326;42.650;23.248;2024-02-16T07:36:25;5.90;;;5.30;;
53040;SDS011;39326;42.650;23.248;2024-02-16T07:38:51;6.57;;;5.87;;
53040;SDS011;39326;42.650;23.248;2024-02-16T07:41:16;6.07;;;5.47;;
53040;SDS011;39326;42.650;23.248;2024-02-16T07:43:42;6.80;;;6.20;;
53040;SDS011;39326;42.650;23.248;2024-02-16T07:46:07;6.27;;;5.67;;
53040;SDS011;39326;42.650;23.248;2024-02-16T07:48:33;6.07;;;5.47;;
53040;SDS011;39326;42.650;23.248;2024-02-16T07:51:00;6.83;;;6.13;;
53040;SDS011;39326;42.650;23.248;2024-02-16T07:53:27;6.10;;;5.50;;
53040;SDS011;39326;42.650;23.248;2024-02-16T07:55:54;5.30;;;4.80;;
53040;SDS011;39326;42.650;23.248;2024-02-16T07:58:19;6.20;;;5.60;;
53040;SDS011;39326;42.650;23.248;2024-02-16T08:00:45;6.37;;;5.67;;
53040;SDS011;39326;42.650;23.248;2024-02-16T08:03:10;6.13;;;5.53;;
53040;SDS011;39326;42.650;23.248;2024-02-16T08:05:36;5.43;;;5.00;;
53040;SDS011;39326;42.650;23.248;2024-02-16T08:08:02;6.27;;;5.67;;
53040;SDS011;39326;42.650;23.248;2024-02-16T08:10:28;6.70;;;5.43;;
53040;SDS011;39326;42.650;23.248;2024-02-16T08:12:53;6.47;;;5.90;;
53040;SDS011;39326;42.650;23.248;2024-02-16T08:15:19;6.57;;;5.97;;
53040;SDS011;39326;42.650;23.248;2024-02-16T08:17:51;8.17;;;6.70;;
53040;SDS011;39326;42.650;23.248;2024-02-16T08:20:17;11.27;;;10.17;;
53040;SDS011;39326;42.650;23.248;2024-02-16T08:22:43;17.07;;;15.20;;
53040;SDS011;39326;42.650;23.248;2024-02-16T08:25:08;10.33;;;9.30;;
53040;SDS011;39326;42.650;23.248;2024-02-16T08:27:34;9.50;;;8.70;;
53040;SDS011;39326;42.650;23.248;2024-02-16T08:29:59;10.00;;;9.10;;
53040;SDS011;39326;42.650;23.248;2024-02-16T08:32:27;10.07;;;8.50;;
53040;SDS011;39326;42.650;23.248;2024-02-16T08:34:53;9.10;;;8.03;;
53040;SDS011;39326;42.650;23.248;2024-02-16T08:37:21;10.97;;;9.40;;
53040;SDS011;39326;42.650;23.248;2024-02-16T08:39:46;10.37;;;8.80;;
53040;SDS011;39326;42.650;23.248;2024-02-16T08:42:12;10.13;;;9.23;;
53040;SDS011;39326;42.650;23.248;2024-02-16T08:44:38;10.40;;;9.40;;
53040;SDS011;39326;42.650;23.248;2024-02-16T08:47:05;10.33;;;9.33;;
53040;SDS011;39326;42.650;23.248;2024-02-16T08:49:32;11.40;;;10.40;;
53040;SDS011;39326;42.650;23.248;2024-02-16T08:51:58;11.90;;;10.63;;
53040;SDS011;39326;42.650;23.248;2024-02-16T08:54:23;9.73;;;8.77;;
53040;SDS011;39326;42.650;23.248;2024-02-16T08:56:48;10.50;;;9.43;;
53040;SDS011;39326;42.650;23.248;2024-02-16T08:59:14;13.23;;;9.73;;
53040;SDS011;39326;42.650;23.248;2024-02-16T09:01:39;9.50;;;8.60;;
53040;SDS011;39326;42.650;23.248;2024-02-16T09:04:05;13.23;;;10.73;;
53040;SDS011;39326;42.650;23.248;2024-02-16T09:06:30;14.97;;;11.90;;
53040;SDS011;39326;42.650;23.248;2024-02-16T09:08:56;15.17;;;12.80;;
53040;SDS011;39326;42.650;23.248;2024-02-16T09:11:22;13.40;;;11.20;;
53040;SDS011;39326;42.650;23.248;2024-02-16T09:13:48;11.13;;;10.03;;
53040;SDS011;39326;42.650;23.248;2024-02-16T09:16:14;12.63;;;11.40;;
53040;SDS011;39326;42.650;23.248;2024-02-16T09:18:40;11.00;;;9.90;;
53040;SDS011;39326;42.650;23.248;2024-02-16T09:21:05;14.47;;;11.80;;
53040;SDS011;39326;42.650;23.248;2024-02-16T09:23:32;13.87;;;12.47;;
53040;SDS011;39326;42.650;23.248;2024-02-16T09:25:58;11.70;;;10.57;;
53040;SDS011;39326;42.650;23.248;2024-02-16T09:28:27;10.23;;;9.23;;
53040;SDS011;39326;42.650;23.248;2024-02-16T09:30:53;8.40;;;7.47;;
53040;SDS011;39326;42.650;23.248;2024-02-16T09:33:20;7.23;;;6.63;;
53040;SDS011;39326;42.650;23.248;2024-02-16T09:35:46;6.40;;;5.80;;
53040;SDS011;39326;42.650;23.248;2024-02-16T09:38:12;5.50;;;5.00;;
53040;SDS011;39326;42.650;23.248;2024-02-16T09:40:37;8.57;;;7.77;;
53040;SDS011;39326;42.650;23.248;2024-02-16T09:43:03;8.47;;;7.43;;
53040;SDS011;39326;42.650;23.248;2024-02-16T09:45:29;10.00;;;9.03;;
53040;SDS011;39326;42.650;23.248;2024-02-16T09:47:56;8.87;;;7.97;;
53040;SDS011;39326;42.650;23.248;2024-02-16T09:50:23;8.90;;;8.07;;
53040;SDS011;39326;42.650;23.248;2024-02-16T09:52:49;8.73;;;7.93;;
53040;SDS011;39326;42.650;23.248;2024-02-16T09:55:15;10.63;;;7.57;;
53040;SDS011;39326;42.650;23.248;2024-02-16T09:57:43;8.27;;;7.50;;
53040;SDS011;39326;42.650;23.248;2024-02-16T10:00:09;8.30;;;7.23;;
53040;SDS011;39326;42.650;23.248;2024-02-16T10:02:42;8.13;;;7.43;;
53040;SDS011;39326;42.650;23.248;2024-02-16T10:05:15;7.57;;;6.97;;
53040;SDS011;39326;42.650;23.248;2024-02-16T10:07:42;7.50;;;6.60;;
53040;SDS011;39326;42.650;23.248;2024-02-16T10:10:22;8.37;;;7.57;;
53040;SDS011;39326;42.650;23.248;2024-02-16T10:12:48;7.87;;;6.93;;
53040;SDS011;39326;42.650;23.248;2024-02-16T10:15:21;8.00;;;7.03;;
53040;SDS011;39326;42.650;23.248;2024-02-16T10:17:57;8.50;;;6.97;;
53040;SDS011;39326;42.650;23.248;2024-02-16T10:20:26;8.57;;;7.67;;
53040;SDS011;39326;42.650;23.248;2024-02-16T10:25:36;8.70;;;7.72;;
53040;SDS011;39326;42.650;23.248;2024-02-16T10:28:04;7.70;;;7.03;;
53040;SDS011;39326;42.650;23.248;2024-02-16T10:30:34;8.23;;;7.10;;
53040;SDS011;39326;42.650;23.248;2024-02-16T10:33:01;7.73;;;6.93;;
53040;SDS011;39326;42.650;23.248;2024-02-16T10:35:27;7.18;;;6.47;;
53040;SDS011;39326;42.650;23.248;2024-02-16T10:37:54;6.72;;;5.65;;
53040;SDS011;39326;42.650;23.248;2024-02-16T10:40:22;10.40;;;6.30;;
53040;SDS011;39326;42.650;23.248;2024-02-16T10:42:51;9.30;;;6.35;;
53040;SDS011;39326;42.650;23.248;2024-02-16T10:45:17;8.20;;;7.30;;
53040;SDS011;39326;42.650;23.248;2024-02-16T10:47:44;9.88;;;7.05;;
53040;SDS011;39326;42.650;23.248;2024-02-16T10:50:10;7.28;;;6.57;;
53040;SDS011;39326;42.650;23.248;2024-02-16T10:52:36;7.50;;;6.80;;
53040;SDS011;39326;42.650;23.248;2024-02-16T10:55:06;7.30;;;6.70;;
53040;SDS011;39326;42.650;23.248;2024-02-16T10:57:35;7.10;;;6.57;;
53040;SDS011;39326;42.650;23.248;2024-02-16T11:00:01;7.47;;;6.82;;
53040;SDS011;39326;42.650;23.248;2024-02-16T11:02:53;7.25;;;6.38;;
53040;SDS011;39326;42.650;23.248;2024-02-16T11:05:39;6.80;;;6.10;;
53040;SDS011;39326;42.650;23.248;2024-02-16T11:08:12;7.15;;;6.45;;
53040;SDS011;39326;42.650;23.248;2024-02-16T11:10:38;7.32;;;6.72;;
53040;SDS011;39326;42.650;23.248;2024-02-16T11:13:03;7.75;;;6.95;;
53040;SDS011;39326;42.650;23.248;2024-02-16T11:15:30;7.18;;;6.53;;
53040;SDS011;39326;42.650;23.248;2024-02-16T11:17:57;6.50;;;5.90;;
53040;SDS011;39326;42.650;23.248;2024-02-16T11:20:25;7.18;;;6.50;;
53040;SDS011;39326;42.650;23.248;2024-02-16T11:22:51;6.65;;;6.05;;
53040;SDS011;39326;42.650;23.248;2024-02-16T11:25:18;5.93;;;5.40;;
53040;SDS011;39326;42.650;23.248;2024-02-16T11:27:45;8.52;;;6.13;;
53040;SDS011;39326;42.650;23.248;2024-02-16T11:30:12;6.15;;;5.63;;
53040;SDS011;39326;42.650;23.248;2024-02-16T11:32:38;6.78;;;6.03;;
53040;SDS011;39326;42.650;23.248;2024-02-16T11:35:08;7.20;;;6.60;;
53040;SDS011;39326;42.650;23.248;2024-02-16T11:37:34;6.53;;;5.93;;
53040;SDS011;39326;42.650;23.248;2024-02-16T11:40:00;7.45;;;5.53;;
53040;SDS011;39326;42.650;23.248;2024-02-16T11:42:25;6.47;;;5.35;;
53040;SDS011;39326;42.650;23.248;2024-02-16T11:44:54;5.75;;;5.35;;
53040;SDS011;39326;42.650;23.248;2024-02-16T11:47:24;8.50;;;6.10;;
53040;SDS011;39326;42.650;23.248;2024-02-16T11:50:26;6.95;;;6.45;;
53040;SDS011;39326;42.650;23.248;2024-02-16T11:52:45;8.13;;;6.10;;
53040;SDS011;39326;42.650;23.248;2024-02-16T11:55:12;5.15;;;4.75;;
53040;SDS011;39326;42.650;23.248;2024-02-16T11:57:39;6.43;;;5.82;;
53040;SDS011;39326;42.650;23.248;2024-02-16T12:00:05;5.97;;;5.47;;
53040;SDS011;39326;42.650;23.248;2024-02-16T12:02:39;6.97;;;5.45;;
53040;SDS011;39326;42.650;23.248;2024-02-16T12:05:05;5.50;;;5.03;;
53040;SDS011;39326;42.650;23.248;2024-02-16T12:07:31;5.90;;;5.32;;
53040;SDS011;39326;42.650;23.248;2024-02-16T12:09:59;6.72;;;6.10;;
53040;SDS011;39326;42.650;23.248;2024-02-16T12:12:26;6.53;;;5.93;;
53040;SDS011;39326;42.650;23.248;2024-02-16T12:14:52;5.72;;;5.22;;
53040;SDS011;39326;42.650;23.248;2024-02-16T12:17:18;6.18;;;5.63;;
53040;SDS011;39326;42.650;23.248;2024-02-16T12:19:44;6.22;;;5.57;;
53040;SDS011;39326;42.650;23.248;2024-02-16T12:22:11;5.90;;;5.40;;
53040;SDS011;39326;42.650;23.248;2024-02-16T12:24:42;6.18;;;5.78;;
53040;SDS011;39326;42.650;23.248;2024-02-16T12:27:07;7.18;;;6.15;;
53040;SDS011;39326;42.650;23.248;2024-02-16T12:29:32;6.93;;;6.28;;
53040;SDS011;39326;42.650;23.248;2024-02-16T12:31:58;8.27;;;6.22;;
53040;SDS011;39326;42.650;23.248;2024-02-16T12:34:24;6.88;;;6.25;;
53040;SDS011;39326;42.650;23.248;2024-02-16T12:36:50;7.22;;;6.53;;
53040;SDS011;39326;42.650;23.248;2024-02-16T12:39:16;7.38;;;6.68;;
53040;SDS011;39326;42.650;23.248;2024-02-16T12:41:41;7.50;;;6.95;;
53040;SDS011;39326;42.650;23.248;2024-02-16T12:44:08;7.50;;;6.35;;
53040;SDS011;39326;42.650;23.248;2024-02-16T12:46:33;7.88;;;6.28;;
53040;SDS011;39326;42.650;23.248;2024-02-16T12:48:59;8.60;;;7.57;;
53040;SDS011;39326;42.650;23.248;2024-02-16T12:51:24;7.63;;;6.93;;
53040;SDS011;39326;42.650;23.248;2024-02-16T12:53:50;7.65;;;6.95;;
53040;SDS011;39326;42.650;23.248;2024-02-16T12:56:16;8.77;;;6.88;;
53040;SDS011;39326;42.650;23.248;2024-02-16T12:58:41;8.27;;;7.35;;
53040;SDS011;39326;42.650;23.248;2024-02-16T13:01:07;11.10;;;7.90;;
53040;SDS011;39326;42.650;23.248;2024-02-16T13:03:33;7.85;;;7.15;;
53040;SDS011;39326;42.650;23.248;2024-02-16T13:05:59;7.75;;;7.10;;
53040;SDS011;39326;42.650;23.248;2024-02-16T13:08:25;7.55;;;6.85;;
53040;SDS011;39326;42.650;23.248;2024-02-16T13:10:50;7.63;;;6.93;;
53040;SDS011;39326;42.650;23.248;2024-02-16T13:13:15;7.30;;;6.70;;
53040;SDS011;39326;42.650;23.248;2024-02-16T13:15:41;7.13;;;6.43;;
53040;SDS011;39326;42.650;23.248;2024-02-16T13:18:06;9.18;;;6.75;;
53040;SDS011;39326;42.650;23.248;2024-02-16T13:20:32;8.80;;;6.80;;
53040;SDS011;39326;42.650;23.248;2024-02-16T13:22:59;7.15;;;6.55;;
53040;SDS011;39326;42.650;23.248;2024-02-16T13:25:25;6.75;;;6.15;;
53040;SDS011;39326;42.650;23.248;2024-02-16T13:27:50;7.80;;;7.20;;
53040;SDS011;39326;42.650;23.248;2024-02-16T13:30:15;7.47;;;5.80;;
53040;SDS011;39326;42.650;23.248;2024-02-16T13:32:41;6.05;;;5.55;;
53040;SDS011;39326;42.650;23.248;2024-02-16T13:35:06;6.60;;;6.00;;
53040;SDS011;39326;42.650;23.248;2024-02-16T13:37:32;8.13;;;6.10;;
53040;SDS011;39326;42.650;23.248;2024-02-16T13:39:57;7.18;;;6.45;;
53040;SDS011;39326;42.650;23.248;2024-02-16T13:42:24;6.93;;;5.68;;
53040;SDS011;39326;42.650;23.248;2024-02-16T13:44:51;7.30;;;6.50;;
53040;SDS011;39326;42.650;23.248;2024-02-16T13:47:16;7.03;;;5.65;;
53040;SDS011;39326;42.650;23.248;2024-02-16T13:49:42;6.63;;;5.93;;
53040;SDS011;39326;42.650;23.248;2024-02-16T13:52:07;6.77;;;6.07;;
53040;SDS011;39326;42.650;23.248;2024-02-16T13:54:34;6.82;;;5.97;;
53040;SDS011;39326;42.650;23.248;2024-02-16T13:57:00;7.97;;;6.70;;
53040;SDS011;39326;42.650;23.248;2024-02-16T13:59:26;8.47;;;7.40;;
53040;SDS011;39326;42.650;23.248;2024-02-16T14:01:51;7.47;;;6.10;;
53040;SDS011;39326;42.650;23.248;2024-02-16T14:04:17;7.30;;;6.70;;
53040;SDS011;39326;42.650;23.248;2024-02-16T14:06:44;7.40;;;6.75;;
53040;SDS011;39326;42.650;23.248;2024-02-16T14:09:10;6.70;;;6.00;;
53040;SDS011;39326;42.650;23.248;2024-02-16T14:11:38;6.73;;;6.10;;
53040;SDS011;39326;42.650;23.248;2024-02-16T14:14:04;7.50;;;6.80;;
53040;SDS011;39326;42.650;23.248;2024-02-16T14:16:30;11.10;;;6.17;;
53040;SDS011;39326;42.650;23.248;2024-02-16T14:18:56;7.20;;;6.00;;
53040;SDS011;39326;42.650;23.248;2024-02-16T14:21:22;7.43;;;6.67;;
53040;SDS011;39326;42.650;23.248;2024-02-16T14:23:48;8.03;;;6.47;;
53040;SDS011;39326;42.650;23.248;2024-02-16T14:26:13;8.57;;;6.50;;
53040;SDS011;39326;42.650;23.248;2024-02-16T14:28:38;7.13;;;6.43;;